createdAt,value
2022-07-30T00:03:08.430Z,1007.704
2022-07-30T00:23:07.390Z,1007.551
2022-07-30T00:43:07.408Z,1007.416
2022-07-30T01:03:08.230Z,1007.294
2022-07-30T01:23:07.169Z,1007.119
2022-07-30T01:43:08.684Z,1006.993
2022-07-30T02:03:08.783Z,1007.064
2022-07-30T02:23:07.742Z,1007.122
2022-07-30T02:43:07.744Z,1007.07
2022-07-30T03:03:08.462Z,1007.221
2022-07-30T03:23:07.353Z,1007.371
2022-07-30T03:43:34.160Z,1007.385
2022-07-30T04:03:08.933Z,1007.519
2022-07-30T04:23:07.886Z,1007.78
2022-07-30T04:43:08.096Z,1007.798
2022-07-30T05:03:08.878Z,1007.955
2022-07-30T05:23:07.956Z,1008.068
2022-07-30T05:43:07.928Z,1008.139
2022-07-30T06:03:08.851Z,1008.312
2022-07-30T06:23:07.727Z,1008.484
2022-07-30T06:43:07.616Z,1008.591
2022-07-30T07:03:12.602Z,1008.53
2022-07-30T07:23:13.111Z,1008.605
2022-07-30T07:43:07.804Z,1008.665
2022-07-30T08:03:08.756Z,1008.606
2022-07-30T08:23:07.583Z,1008.506
2022-07-30T08:43:07.751Z,1008.474
2022-07-30T09:03:08.580Z,1008.547
2022-07-30T09:23:07.383Z,1008.618
2022-07-30T09:43:07.443Z,1008.679
2022-07-30T10:03:42.576Z,1008.707
2022-07-30T10:23:09.884Z,1008.68
2022-07-30T10:43:10.256Z,1008.692
2022-07-30T11:03:16.628Z,1008.61
2022-07-30T11:23:08.084Z,1008.594
2022-07-30T11:43:08.145Z,1008.592
2022-07-30T12:03:08.994Z,1008.561
2022-07-30T12:23:07.941Z,1008.522
2022-07-30T12:43:14.524Z,1008.478
2022-07-30T13:03:08.385Z,1008.522
2022-07-30T13:23:07.342Z,1008.408
2022-07-30T13:43:07.426Z,1008.452
2022-07-30T14:03:08.379Z,1008.414
2022-07-30T14:23:07.342Z,1008.342
2022-07-30T14:43:07.677Z,1008.325
2022-07-30T15:03:08.661Z,1008.287
2022-07-30T15:23:14.098Z,1008.169
2022-07-30T15:43:10.907Z,1008.188
2022-07-30T16:03:08.858Z,1008.162
2022-07-30T16:23:21.959Z,1008.212
2022-07-30T16:43:08.135Z,1008.311
2022-07-30T17:03:09.003Z,1008.27
2022-07-30T17:23:07.814Z,1008.284
2022-07-30T17:43:08.476Z,1008.352
2022-07-30T18:03:08.419Z,1008.491
2022-07-30T18:23:14.603Z,1008.556
2022-07-30T18:43:07.573Z,1008.712
2022-07-30T19:03:23.300Z,1008.798
2022-07-30T19:23:07.242Z,1008.906
2022-07-30T19:43:10.916Z,1009.277
2022-07-30T20:03:15.135Z,1009.329
2022-07-30T20:23:08.053Z,1009.578
2022-07-30T20:43:07.148Z,1009.584
2022-07-30T21:03:14.862Z,1009.599
2022-07-30T21:23:11.134Z,1009.723
2022-07-30T21:43:08.660Z,1009.843
2022-07-30T22:04:09.112Z,1009.806
2022-07-30T22:23:07.501Z,1009.901
2022-07-30T22:43:08.617Z,1009.754
2022-07-30T23:03:08.848Z,1009.578
2022-07-30T23:23:07.750Z,1009.334
2022-07-30T23:43:07.616Z,1009.238
